Time;durP1;ratioP1;P1;durP2;ratioP2;P2;SDS_P1;SDS_P2;PMS_P1;PMS_P2;Temp;Humidity;BMP_temperature;BMP_pressure;BME280_temperature;BME280_humidity;BME280_pressure;Samples;Min_cycle;Max_cycle;Signal;HPM_P1;HPM_P2
2022/11/21 00:00:40;;;;;;;;;;;6.60;73.00;;;;;;5068945;28;19951;-79
2022/11/21 00:03:05;;;;;;;;;;;6.60;73.00;;;;;;5057286;28;20015;-80
2022/11/21 00:05:31;;;;;;;;;;;6.60;73.00;;;;;;5049650;28;20039;-79
2022/11/21 00:07:57;;;;;;;;;;;6.60;73.00;;;;;;5089568;28;20366;-79
2022/11/21 00:10:23;;;;;;;;;;;6.60;73.00;;;;;;5086049;28;19936;-80
2022/11/21 00:12:56;;;;;;;;;;;6.60;73.00;;;;;;5094273;28;19908;-80
2022/11/21 00:15:22;;;;;;;;;;;6.60;73.00;;;;;;5085065;28;19963;-79
2022/11/21 00:17:48;;;;;;;;;;;6.60;73.00;;;;;;5072513;28;19958;-79
2022/11/21 00:20:14;;;;;;;;;;;6.60;73.00;;;;;;5086567;28;19964;-83
2022/11/21 00:22:39;;;;;;;;;;;6.60;73.00;;;;;;5074997;28;19923;-79
2022/11/21 00:25:05;;;;;;;;;;;6.60;73.00;;;;;;5053062;28;19988;-79
2022/11/21 00:27:31;;;;;;;;;;;6.60;73.00;;;;;;5087850;28;20018;-80
2022/11/21 00:29:57;;;;;;;;;;;6.60;73.00;;;;;;5075255;28;20018;-80
2022/11/21 00:32:22;;;;;;;;;;;6.60;73.00;;;;;;5078356;28;20003;-79
2022/11/21 00:34:48;;;;;;;;;;;6.60;73.00;;;;;;5088047;28;19912;-80
2022/11/21 00:37:13;;;;;;;;;;;6.60;73.00;;;;;;5094591;28;19962;-81
2022/11/21 00:39:39;;;;;;;;;;;6.60;73.00;;;;;;5064242;28;19916;-79
2022/11/21 00:42:04;;;;;;;;;;;6.60;73.00;;;;;;5090008;28;19927;-80
2022/11/21 00:44:30;;;;;;;;;;;6.60;73.00;;;;;;5101304;28;19965;-81
2022/11/21 00:46:56;;;;;;;;;;;6.60;73.00;;;;;;5079931;28;19920;-79
2022/11/21 00:49:21;;;;;;;;;;;6.60;73.00;;;;;;5098158;28;19920;-79
2022/11/21 00:51:47;;;;;;;;;;;6.60;73.00;;;;;;5064492;28;20718;-79
2022/11/21 00:54:12;;;;;;;;;;;6.60;73.00;;;;;;5063596;28;20387;-79
2022/11/21 00:56:38;;;;;;;;;;;6.60;73.00;;;;;;5086676;28;19916;-82
2022/11/21 00:59:04;;;;;;;;;;;6.60;73.60;;;;;;5075497;28;19912;-81
2022/11/21 01:01:29;;;;;;;;;;;6.60;73.00;;;;;;5087253;28;19920;-79
2022/11/21 01:03:56;;;;;;;;;;;6.60;73.00;;;;;;5075243;28;20576;-79
2022/11/21 01:06:22;;;;;;;;;;;6.60;73.00;;;;;;5077340;28;19952;-79
2022/11/21 01:08:47;;;;;;;;;;;6.60;73.10;;;;;;5073738;28;20945;-79
2022/11/21 01:11:15;;;;;;;;;;;6.60;73.00;;;;;;5081124;28;19922;-80
2022/11/21 01:13:41;;;;;;;;;;;6.60;73.00;;;;;;5057808;28;19912;-82
2022/11/21 01:16:10;;;;;;;;;;;6.60;73.00;;;;;;5090116;28;19927;-81
2022/11/21 01:18:36;;;;;;;;;;;6.60;73.00;;;;;;5071913;28;20224;-81
2022/11/21 01:21:06;;;;;;;;;;;6.60;73.00;;;;;;5064258;28;19954;-80
2022/11/21 01:23:32;;;;;;;;;;;6.60;73.00;;;;;;5091047;28;19965;-79
2022/11/21 01:26:04;;;;;;;;;;;6.60;73.00;;;;;;5075359;28;20334;-81
2022/11/21 01:28:30;;;;;;;;;;;6.60;73.00;;;;;;5046507;28;20003;-80
2022/11/21 01:31:10;;;;;;;;;;;6.60;73.10;;;;;;5074798;28;20618;-82
2022/11/21 01:33:36;;;;;;;;;;;6.60;73.00;;;;;;5089357;28;19916;-79
2022/11/21 01:36:05;;;;;;;;;;;6.60;73.00;;;;;;5088018;28;19912;-79
2022/11/21 01:38:32;;;;;;;;;;;6.60;73.10;;;;;;5069652;28;19919;-79
2022/11/21 01:40:57;;;;;;;;;;;6.60;73.10;;;;;;5048161;28;19916;-79
2022/11/21 01:43:23;;;;;;;;;;;6.60;73.10;;;;;;5078754;28;19960;-80
2022/11/21 01:45:56;;;;;;;;;;;6.60;73.10;;;;;;5075527;28;19920;-80
2022/11/21 01:48:26;;;;;;;;;;;6.60;73.10;;;;;;5093180;28;20404;-80
2022/11/21 01:50:53;;;;;;;;;;;6.60;73.10;;;;;;5091757;28;20002;-80
2022/11/21 01:53:19;;;;;;;;;;;6.60;73.10;;;;;;5066707;28;19919;-79
2022/11/21 01:55:44;;;;;;;;;;;6.70;73.10;;;;;;5060040;28;19916;-80
2022/11/21 01:58:10;;;;;;;;;;;6.60;73.10;;;;;;5096740;28;20388;-80
2022/11/21 02:00:37;;;;;;;;;;;6.60;73.10;;;;;;5066139;28;19924;-79
2022/11/21 02:03:06;;;;;;;;;;;6.60;73.10;;;;;;5088211;28;19909;-79
2022/11/21 02:05:33;;;;;;;;;;;6.60;73.10;;;;;;5089381;28;19916;-79
2022/11/21 02:08:12;;;;;;;;;;;6.60;73.10;;;;;;5059907;28;20004;-79
2022/11/21 02:10:40;;;;;;;;;;;6.60;73.10;;;;;;5079982;28;19965;-79
2022/11/21 02:13:06;;;;;;;;;;;6.60;73.10;;;;;;5080872;28;19943;-80
2022/11/21 02:15:31;;;;;;;;;;;6.60;73.10;;;;;;5053520;28;19920;-79
2022/11/21 02:17:57;;;;;;;;;;;6.60;73.10;;;;;;5067305;28;20716;-83
2022/11/21 02:20:24;;;;;;;;;;;6.60;73.10;;;;;;5054155;28;20523;-79
2022/11/21 02:23:01;;;;;;;;;;;6.60;73.10;;;;;;5075575;28;19967;-79
2022/11/21 02:25:32;;;;;;;;;;;6.60;73.10;;;;;;5066980;28;19927;-79
2022/11/21 02:28:00;;;;;;;;;;;6.70;73.20;;;;;;5057007;28;20035;-79
2022/11/21 02:30:27;;;;;;;;;;;6.60;73.10;;;;;;5089846;28;20009;-80
2022/11/21 02:32:53;;;;;;;;;;;6.60;73.10;;;;;;5071996;28;20431;-79
2022/11/21 02:35:19;;;;;;;;;;;6.70;73.10;;;;;;5063376;28;19997;-79
2022/11/21 02:37:46;;;;;;;;;;;6.60;73.10;;;;;;5060650;28;19928;-80
2022/11/21 02:40:16;;;;;;;;;;;6.60;73.10;;;;;;5076079;28;19999;-79
2022/11/21 02:42:55;;;;;;;;;;;6.60;73.10;;;;;;5090494;28;20007;-81
2022/11/21 02:45:25;;;;;;;;;;;6.60;73.10;;;;;;5087321;28;19950;-79
2022/11/21 02:47:53;;;;;;;;;;;6.60;73.10;;;;;;5076566;28;19923;-79
2022/11/21 02:50:22;;;;;;;;;;;6.60;73.10;;;;;;5073337;28;19912;-79
2022/11/21 02:52:48;;;;;;;;;;;6.60;73.10;;;;;;5087097;28;19912;-81
2022/11/21 02:55:14;;;;;;;;;;;6.70;73.20;;;;;;5073478;28;19927;-85
2022/11/21 02:57:40;;;;;;;;;;;6.60;73.10;;;;;;5056680;28;20479;-79
2022/11/21 03:00:07;;;;;;;;;;;6.60;73.10;;;;;;5073233;28;19912;-82
2022/11/21 03:02:32;;;;;;;;;;;6.60;73.10;;;;;;5075375;28;19916;-79
2022/11/21 03:04:58;;;;;;;;;;;6.60;73.10;;;;;;5090435;28;19919;-80
2022/11/21 03:07:24;;;;;;;;;;;6.60;73.20;;;;;;5073052;28;20289;-79
2022/11/21 03:09:49;;;;;;;;;;;6.60;73.10;;;;;;5056002;28;19916;-80
2022/11/21 03:12:15;;;;;;;;;;;6.60;73.10;;;;;;5074144;28;19928;-81
2022/11/21 03:14:41;;;;;;;;;;;6.60;73.20;;;;;;5077881;28;19927;-79
2022/11/21 03:17:06;;;;;;;;;;;6.70;73.20;;;;;;5078811;28;19927;-79
2022/11/21 03:19:32;;;;;;;;;;;6.60;73.20;;;;;;5056888;28;19908;-80
2022/11/21 03:21:57;;;;;;;;;;;6.60;73.10;;;;;;5050852;28;19923;-80
2022/11/21 03:24:23;;;;;;;;;;;6.60;73.20;;;;;;5098005;28;19926;-79
2022/11/21 03:26:49;;;;;;;;;;;6.60;73.20;;;;;;5070383;28;19977;-79
2022/11/21 03:29:14;;;;;;;;;;;6.60;73.20;;;;;;5038515;28;19920;-80
2022/11/21 03:31:40;;;;;;;;;;;6.60;73.20;;;;;;5070589;28;19923;-81
2022/11/21 03:34:06;;;;;;;;;;;6.60;73.20;;;;;;5065635;28;19964;-80
2022/11/21 03:36:31;;;;;;;;;;;6.60;73.20;;;;;;5077378;28;19920;-83
2022/11/21 03:38:57;;;;;;;;;;;6.60;73.20;;;;;;5100039;28;20340;-79
2022/11/21 03:41:29;;;;;;;;;;;6.60;73.20;;;;;;5076291;28;20008;-79
2022/11/21 03:44:05;;;;;;;;;;;6.60;73.20;;;;;;5056086;28;19962;-79
2022/11/21 03:46:31;;;;;;;;;;;6.60;73.20;;;;;;5057540;28;19970;-80
2022/11/21 03:48:57;;;;;;;;;;;6.60;73.90;;;;;;5100394;28;19923;-79
2022/11/21 03:51:22;;;;;;;;;;;6.60;73.30;;;;;;5083460;28;20456;-79
2022/11/21 03:53:48;;;;;;;;;;;6.60;73.30;;;;;;5083471;28;19920;-79
2022/11/21 03:56:14;;;;;;;;;;;6.60;73.20;;;;;;5059667;28;19920;-79
2022/11/21 03:58:40;;;;;;;;;;;6.60;73.30;;;;;;5083000;28;19955;-79
2022/11/21 04:01:06;;;;;;;;;;;6.60;73.30;;;;;;5089268;28;19923;-78
2022/11/21 04:03:31;;;;;;;;;;;6.60;73.30;;;;;;5090204;28;19917;-79
2022/11/21 04:05:57;;;;;;;;;;;6.60;73.30;;;;;;5072925;28;19924;-80
2022/11/21 04:08:22;;;;;;;;;;;6.60;73.20;;;;;;5077588;28;19917;-79
2022/11/21 04:10:49;;;;;;;;;;;6.60;73.30;;;;;;5070506;28;20523;-82
2022/11/21 04:13:14;;;;;;;;;;;6.60;73.30;;;;;;5071859;28;19912;-79
2022/11/21 04:15:40;;;;;;;;;;;6.50;73.20;;;;;;5062082;28;19916;-79
2022/11/21 04:18:06;;;;;;;;;;;6.60;73.30;;;;;;5065744;28;19916;-79
2022/11/21 04:20:32;;;;;;;;;;;6.60;73.30;;;;;;5073215;28;20353;-83
2022/11/21 04:22:57;;;;;;;;;;;6.60;73.30;;;;;;5088724;28;19924;-81
2022/11/21 04:25:23;;;;;;;;;;;6.60;73.30;;;;;;5088824;28;19920;-78
2022/11/21 04:27:49;;;;;;;;;;;6.60;73.30;;;;;;5069060;28;20457;-79
2022/11/21 04:30:14;;;;;;;;;;;6.60;73.30;;;;;;5070605;28;19920;-79
2022/11/21 04:32:40;;;;;;;;;;;6.50;73.20;;;;;;5096299;28;19947;-79
2022/11/21 04:35:06;;;;;;;;;;;6.60;73.30;;;;;;5093325;28;19923;-79
2022/11/21 04:37:31;;;;;;;;;;;6.60;73.40;;;;;;5082631;28;20006;-79
2022/11/21 04:39:57;;;;;;;;;;;6.60;73.30;;;;;;5085892;28;19917;-80
2022/11/21 04:42:23;;;;;;;;;;;6.60;73.30;;;;;;5082158;28;19975;-80
2022/11/21 04:44:48;;;;;;;;;;;6.60;73.30;;;;;;5082536;28;19916;-80
2022/11/21 04:47:14;;;;;;;;;;;6.60;73.30;;;;;;5071098;28;19927;-79
2022/11/21 04:49:40;;;;;;;;;;;6.60;73.30;;;;;;5061340;28;19982;-80
2022/11/21 04:52:05;;;;;;;;;;;6.60;73.30;;;;;;5062084;28;19916;-80
2022/11/21 04:54:31;;;;;;;;;;;6.50;73.70;;;;;;5069335;28;20383;-79
2022/11/21 04:56:56;;;;;;;;;;;6.50;73.30;;;;;;5069734;28;19941;-79
2022/11/21 04:59:22;;;;;;;;;;;6.60;73.30;;;;;;5095446;28;20015;-82
2022/11/21 05:01:47;;;;;;;;;;;6.60;73.40;;;;;;5050531;28;20379;-80
2022/11/21 05:04:13;;;;;;;;;;;6.60;74.00;;;;;;5077100;28;19916;-80
2022/11/21 05:06:39;;;;;;;;;;;6.50;73.30;;;;;;5088499;28;20292;-80
2022/11/21 05:09:04;;;;;;;;;;;6.60;73.40;;;;;;5079374;28;20288;-79
2022/11/21 05:14:14;;;;;;;;;;;6.50;73.30;;;;;;5077713;28;20345;-80
2022/11/21 05:16:40;;;;;;;;;;;6.50;73.30;;;;;;5082829;28;19944;-79
2022/11/21 05:19:06;;;;;;;;;;;6.50;73.30;;;;;;5069977;28;19988;-79
2022/11/21 05:21:32;;;;;;;;;;;6.50;73.30;;;;;;5052980;28;19981;-82
2022/11/21 05:23:57;;;;;;;;;;;6.50;73.30;;;;;;5077575;28;19922;-79
2022/11/21 05:26:23;;;;;;;;;;;6.60;73.40;;;;;;5068910;28;19931;-79
2022/11/21 05:28:48;;;;;;;;;;;6.60;73.40;;;;;;5066207;28;19916;-79
2022/11/21 05:31:14;;;;;;;;;;;6.50;73.30;;;;;;5069711;28;20027;-79
2022/11/21 05:33:39;;;;;;;;;;;6.50;73.30;;;;;;5082455;28;20552;-84
2022/11/21 05:36:05;;;;;;;;;;;6.50;73.30;;;;;;5074057;28;19926;-79
2022/11/21 05:38:31;;;;;;;;;;;6.60;73.30;;;;;;5080583;28;20614;-79
2022/11/21 05:40:56;;;;;;;;;;;6.50;73.30;;;;;;5071226;28;20530;-79
2022/11/21 05:46:06;;;;;;;;;;;6.50;73.30;;;;;;5082815;28;19931;-82
2022/11/21 05:48:33;;;;;;;;;;;6.50;73.30;;;;;;5056138;28;19916;-79
2022/11/21 05:50:58;;;;;;;;;;;6.50;73.30;;;;;;5066417;28;19939;-80
2022/11/21 05:53:24;;;;;;;;;;;6.50;73.30;;;;;;5098978;28;19916;-79
2022/11/21 05:55:50;;;;;;;;;;;6.50;73.30;;;;;;5092846;28;19916;-80
2022/11/21 05:58:15;;;;;;;;;;;6.50;73.30;;;;;;5090286;28;20014;-79
2022/11/21 06:00:41;;;;;;;;;;;6.50;73.30;;;;;;5080838;28;20007;-79
2022/11/21 06:03:26;;;;;;;;;;;6.50;73.30;;;;;;5070096;28;19927;-81
2022/11/21 06:05:57;;;;;;;;;;;6.50;73.30;;;;;;5073027;28;19927;-79
2022/11/21 06:08:22;;;;;;;;;;;6.50;73.30;;;;;;5093845;28;19999;-80
2022/11/21 06:10:48;;;;;;;;;;;6.50;73.40;;;;;;5064637;28;19961;-81
2022/11/21 06:13:23;;;;;;;;;;;6.50;73.40;;;;;;5062583;28;19916;-82
2022/11/21 06:16:01;;;;;;;;;;;6.50;73.40;;;;;;5063731;28;19955;-80
2022/11/21 06:18:27;;;;;;;;;;;6.50;73.40;;;;;;5067244;28;19912;-78
2022/11/21 06:20:53;;;;;;;;;;;6.50;73.40;;;;;;5084864;28;20014;-80
2022/11/21 06:23:19;;;;;;;;;;;6.50;73.40;;;;;;5081786;28;19962;-80
2022/11/21 06:25:44;;;;;;;;;;;6.50;73.40;;;;;;5091290;28;20349;-79
2022/11/21 06:28:10;;;;;;;;;;;6.50;73.40;;;;;;5089023;28;19923;-80
2022/11/21 06:30:36;;;;;;;;;;;6.50;73.40;;;;;;5074741;28;20023;-77
2022/11/21 06:33:03;;;;;;;;;;;6.50;73.40;;;;;;5069179;28;19923;-79
2022/11/21 06:35:29;;;;;;;;;;;6.50;73.40;;;;;;5084027;28;19962;-80
2022/11/21 06:37:55;;;;;;;;;;;6.50;74.10;;;;;;5072327;28;19912;-79
2022/11/21 06:40:21;;;;;;;;;;;6.50;73.40;;;;;;5081046;28;19912;-78
2022/11/21 06:42:46;;;;;;;;;;;6.50;73.40;;;;;;5076737;28;19916;-80
2022/11/21 06:45:12;;;;;;;;;;;6.50;73.40;;;;;;5060629;28;20066;-78
2022/11/21 06:47:37;;;;;;;;;;;6.50;73.40;;;;;;5060787;28;20511;-78
2022/11/21 06:50:03;;;;;;;;;;;6.50;73.40;;;;;;5077497;28;19996;-80
2022/11/21 06:52:31;;;;;;;;;;;6.50;73.40;;;;;;5089857;28;19913;-80
2022/11/21 06:54:56;;;;;;;;;;;6.50;73.40;;;;;;5086698;28;19919;-78
2022/11/21 06:57:22;;;;;;;;;;;6.50;73.40;;;;;;5057320;28;20292;-79
2022/11/21 06:59:48;;;;;;;;;;;6.60;73.40;;;;;;5091210;28;19969;-79
2022/11/21 07:02:13;;;;;;;;;;;6.60;73.40;;;;;;5088479;28;20284;-79
2022/11/21 07:04:39;;;;;;;;;;;6.50;73.40;;;;;;5083295;28;19927;-80
2022/11/21 07:07:05;;;;;;;;;;;6.50;73.40;;;;;;5072048;28;19921;-78
2022/11/21 07:09:32;;;;;;;;;;;6.50;73.40;;;;;;5083013;28;19920;-82
2022/11/21 07:13:20;;;;;;;;;;;6.50;73.40;;;;;;5079906;28;20052;-81
2022/11/21 07:14:44;;;;;;;;;;;6.50;73.40;;;;;;5099785;28;19912;-80
2022/11/21 07:17:10;;;;;;;;;;;6.60;73.50;;;;;;5059941;28;19930;-78
2022/11/21 07:19:36;;;;;;;;;;;6.50;73.40;;;;;;5067129;28;20353;-79
2022/11/21 07:22:01;;;;;;;;;;;6.60;73.50;;;;;;5082597;28;20016;-79
2022/11/21 07:24:27;;;;;;;;;;;6.50;73.40;;;;;;5080536;28;20257;-80
2022/11/21 07:26:52;;;;;;;;;;;6.50;73.40;;;;;;5094097;28;19927;-80
2022/11/21 07:29:18;;;;;;;;;;;6.60;73.50;;;;;;5067110;28;20280;-80
2022/11/21 07:31:44;;;;;;;;;;;6.50;73.40;;;;;;5050060;28;19916;-80
2022/11/21 07:34:09;;;;;;;;;;;6.50;73.40;;;;;;5069267;28;19965;-80
2022/11/21 07:36:35;;;;;;;;;;;6.50;73.40;;;;;;5062035;28;19920;-80
2022/11/21 07:39:01;;;;;;;;;;;6.50;73.40;;;;;;5078957;28;20035;-80
2022/11/21 07:41:27;;;;;;;;;;;6.60;73.50;;;;;;5064982;28;20324;-81
2022/11/21 07:43:53;;;;;;;;;;;6.60;73.50;;;;;;5066327;28;19926;-80
2022/11/21 07:46:18;;;;;;;;;;;6.60;73.50;;;;;;5099319;28;20007;-81
2022/11/21 07:48:44;;;;;;;;;;;6.60;73.50;;;;;;5098474;28;19916;-80
2022/11/21 07:51:10;;;;;;;;;;;6.60;73.50;;;;;;5076989;28;19919;-82
2022/11/21 07:53:35;;;;;;;;;;;6.60;73.50;;;;;;5077883;28;20455;-80
2022/11/21 07:56:01;;;;;;;;;;;6.60;73.50;;;;;;5099563;28;19960;-79
2022/11/21 07:58:27;;;;;;;;;;;6.60;73.50;;;;;;5083525;28;20489;-82
2022/11/21 08:00:53;;;;;;;;;;;6.60;73.50;;;;;;5078472;28;19913;-79
2022/11/21 08:03:18;;;;;;;;;;;6.60;73.50;;;;;;5078009;28;19919;-81
2022/11/21 08:05:44;;;;;;;;;;;6.60;73.50;;;;;;5062504;28;19971;-80
2022/11/21 08:08:10;;;;;;;;;;;6.60;73.50;;;;;;5066506;28;20003;-80
2022/11/21 08:10:37;;;;;;;;;;;6.60;73.50;;;;;;5080486;28;19920;-80
2022/11/21 08:13:02;;;;;;;;;;;6.60;73.50;;;;;;5058314;28;19916;-79
2022/11/21 08:15:28;;;;;;;;;;;6.60;73.50;;;;;;5077706;28;19961;-81
2022/11/21 08:17:53;;;;;;;;;;;6.60;73.60;;;;;;5058216;28;20359;-79
2022/11/21 08:20:19;;;;;;;;;;;6.60;73.50;;;;;;5072170;28;19913;-79
2022/11/21 08:22:45;;;;;;;;;;;6.60;73.50;;;;;;5094615;28;19920;-78
2022/11/21 08:25:10;;;;;;;;;;;6.60;73.60;;;;;;5101147;28;20410;-79
2022/11/21 08:27:37;;;;;;;;;;;6.60;73.50;;;;;;5083020;28;19928;-84
2022/11/21 08:30:04;;;;;;;;;;;6.60;73.60;;;;;;5101550;28;19916;-80
2022/11/21 08:32:30;;;;;;;;;;;6.60;73.60;;;;;;5085790;28;20437;-79
2022/11/21 08:34:55;;;;;;;;;;;6.60;73.60;;;;;;5084358;28;19959;-80
2022/11/21 08:37:21;;;;;;;;;;;6.60;73.60;;;;;;5080180;28;19916;-80
2022/11/21 08:39:46;;;;;;;;;;;6.60;73.60;;;;;;5060641;28;19917;-80
2022/11/21 08:42:12;;;;;;;;;;;6.60;73.60;;;;;;5068861;28;19924;-79
2022/11/21 08:44:38;;;;;;;;;;;6.60;73.60;;;;;;5068299;28;19923;-81
2022/11/21 08:47:05;;;;;;;;;;;6.60;73.60;;;;;;5080238;28;20007;-79
2022/11/21 08:49:31;;;;;;;;;;;6.70;73.60;;;;;;5094071;28;20360;-80
2022/11/21 08:51:56;;;;;;;;;;;6.60;73.60;;;;;;5064364;28;19926;-79
2022/11/21 08:54:23;;;;;;;;;;;6.60;73.60;;;;;;5100573;28;20372;-79
2022/11/21 08:56:49;;;;;;;;;;;6.70;73.60;;;;;;5083257;28;19912;-79
2022/11/21 08:59:15;;;;;;;;;;;6.70;73.60;;;;;;5094541;28;19912;-79
2022/11/21 09:01:40;;;;;;;;;;;6.70;73.60;;;;;;5061966;28;19912;-80
2022/11/21 09:04:06;;;;;;;;;;;6.70;73.70;;;;;;5059126;28;20326;-80
2022/11/21 09:06:32;;;;;;;;;;;6.70;73.60;;;;;;5071673;28;19924;-79
2022/11/21 09:08:58;;;;;;;;;;;6.70;73.60;;;;;;5071019;28;19923;-79
2022/11/21 09:11:26;;;;;;;;;;;6.70;73.70;;;;;;5072902;28;20303;-81
2022/11/21 09:19:21;;;;;;;;;;;6.70;73.70;;;;;;5069271;28;19912;-79
2022/11/21 09:21:50;;;;;;;;;;;6.70;73.70;;;;;;5064976;28;20270;-80
2022/11/21 09:24:16;;;;;;;;;;;6.70;73.70;;;;;;5076370;28;19920;-79
2022/11/21 09:26:42;;;;;;;;;;;6.80;73.80;;;;;;5077923;28;19966;-80
2022/11/21 09:29:09;;;;;;;;;;;6.80;73.70;;;;;;5074224;28;19916;-80
2022/11/21 09:31:38;;;;;;;;;;;6.80;73.80;;;;;;5092948;28;19965;-80
2022/11/21 09:34:04;;;;;;;;;;;6.80;73.70;;;;;;5094191;28;19924;-80
2022/11/21 09:36:29;;;;;;;;;;;6.80;73.70;;;;;;5081880;28;19916;-79
2022/11/21 09:38:55;;;;;;;;;;;6.80;73.70;;;;;;5077479;28;19912;-79
2022/11/21 09:41:52;;;;;;;;;;;6.80;73.70;;;;;;5039256;28;19924;-80
2022/11/21 09:44:30;;;;;;;;;;;6.80;73.80;;;;;;5096398;28;19916;-81
2022/11/21 09:47:03;;;;;;;;;;;6.80;73.90;;;;;;5077159;28;19920;-79
2022/11/21 09:49:30;;;;;;;;;;;6.80;73.70;;;;;;5084337;28;19955;-82
2022/11/21 09:51:56;;;;;;;;;;;6.90;73.80;;;;;;5076399;28;19920;-80
2022/11/21 09:54:25;;;;;;;;;;;6.90;73.80;;;;;;5101001;28;19920;-79
2022/11/21 09:56:52;;;;;;;;;;;6.90;73.80;;;;;;5067273;28;20315;-80
2022/11/21 09:59:20;;;;;;;;;;;6.90;73.80;;;;;;5057689;28;20371;-79
2022/11/21 10:01:46;;;;;;;;;;;6.90;73.80;;;;;;5053993;28;19930;-79
2022/11/21 10:04:12;;;;;;;;;;;6.90;73.80;;;;;;5098728;28;20365;-79
2022/11/21 10:06:42;;;;;;;;;;;6.90;73.70;;;;;;5092963;28;19916;-79
2022/11/21 10:09:08;;;;;;;;;;;6.90;73.70;;;;;;5080044;28;20407;-79
2022/11/21 10:12:35;;;;;;;;;;;6.90;73.70;;;;;;5086094;28;19912;-79
2022/11/21 10:14:37;;;;;;;;;;;7.00;73.80;;;;;;5075989;28;20489;-79
2022/11/21 10:17:15;;;;;;;;;;;7.00;73.80;;;;;;5076458;28;19958;-79
2022/11/21 10:19:53;;;;;;;;;;;7.00;73.80;;;;;;5081143;28;19916;-80
2022/11/21 10:22:42;;;;;;;;;;;7.00;73.80;;;;;;5077250;28;19912;-80
2022/11/21 10:25:19;;;;;;;;;;;7.00;73.90;;;;;;5055922;28;20304;-80
2022/11/21 10:27:47;;;;;;;;;;;7.00;73.90;;;;;;5072637;28;19920;-80
2022/11/21 10:30:14;;;;;;;;;;;7.00;73.90;;;;;;5085624;28;19916;-79
2022/11/21 10:32:42;;;;;;;;;;;7.10;73.90;;;;;;5093362;28;19912;-81
2022/11/21 10:35:15;;;;;;;;;;;7.10;73.90;;;;;;5057735;28;19912;-80
2022/11/21 10:37:45;;;;;;;;;;;7.10;73.90;;;;;;5081899;28;19912;-81
2022/11/21 10:40:22;;;;;;;;;;;7.10;73.90;;;;;;5057893;28;20337;-80
2022/11/21 10:42:57;;;;;;;;;;;7.10;73.90;;;;;;5069919;28;19919;-79
2022/11/21 10:45:23;;;;;;;;;;;7.20;73.90;;;;;;5071913;28;19927;-79
2022/11/21 10:47:49;;;;;;;;;;;7.20;73.90;;;;;;5058055;28;19920;-82
2022/11/21 10:50:24;;;;;;;;;;;7.20;73.90;;;;;;5080869;28;20568;-79
2022/11/21 10:53:00;;;;;;;;;;;7.20;73.90;;;;;;5059785;28;19982;-79
2022/11/21 10:55:25;;;;;;;;;;;7.20;73.90;;;;;;5062991;28;19959;-78
2022/11/21 10:57:53;;;;;;;;;;;7.20;73.90;;;;;;5063558;28;20342;-80
2022/11/21 11:00:25;;;;;;;;;;;7.20;73.90;;;;;;5082288;28;19916;-79
2022/11/21 11:02:54;;;;;;;;;;;7.30;74.00;;;;;;5098219;28;19912;-79
2022/11/21 11:05:23;;;;;;;;;;;7.30;74.00;;;;;;5095032;28;19920;-79
2022/11/21 11:08:01;;;;;;;;;;;7.30;74.00;;;;;;5081485;28;19975;-78
2022/11/21 11:10:27;;;;;;;;;;;7.30;73.90;;;;;;5074666;28;19912;-80
2022/11/21 11:15:50;;;;;;;;;;;7.30;73.90;;;;;;5080297;28;19920;-81
2022/11/21 11:18:18;;;;;;;;;;;7.40;74.00;;;;;;5090320;28;20388;-81
2022/11/21 11:20:44;;;;;;;;;;;7.40;74.00;;;;;;5079956;28;19999;-79
2022/11/21 11:23:16;;;;;;;;;;;7.40;74.00;;;;;;5083364;28;20327;-79
2022/11/21 11:25:49;;;;;;;;;;;7.40;74.00;;;;;;5083275;28;19920;-79
2022/11/21 11:28:15;;;;;;;;;;;7.40;74.60;;;;;;5079011;28;19951;-79
2022/11/21 11:30:41;;;;;;;;;;;7.50;74.00;;;;;;5075106;28;19948;-79
2022/11/21 11:33:29;;;;;;;;;;;7.50;74.00;;;;;;5096081;28;19920;-80
2022/11/21 11:35:58;;;;;;;;;;;7.50;74.00;;;;;;5094276;28;20327;-79
2022/11/21 11:38:25;;;;;;;;;;;7.50;74.00;;;;;;5078978;28;19912;-79
2022/11/21 11:40:51;;;;;;;;;;;7.60;74.00;;;;;;5076658;28;19916;-80
2022/11/21 11:49:17;;;;;;;;;;;7.60;74.00;;;;;;5092396;28;19923;-79
2022/11/21 11:51:54;;;;;;;;;;;7.60;73.90;;;;;;5057756;28;19912;-79
2022/11/21 11:54:22;;;;;;;;;;;7.60;74.00;;;;;;5094221;28;19966;-80
2022/11/21 11:56:48;;;;;;;;;;;7.70;74.00;;;;;;5096266;28;20003;-79
2022/11/21 11:59:22;;;;;;;;;;;7.70;74.00;;;;;;5069141;28;19955;-80
2022/11/21 12:01:48;;;;;;;;;;;7.70;74.00;;;;;;5076661;28;19947;-81
2022/11/21 12:04:15;;;;;;;;;;;7.80;74.00;;;;;;5071914;28;19966;-82
2022/11/21 12:06:45;;;;;;;;;;;7.80;74.00;;;;;;5078230;28;19920;-80
2022/11/21 12:09:33;;;;;;;;;;;7.80;74.10;;;;;;5092936;28;19912;-80
2022/11/21 12:12:25;;;;;;;;;;;7.80;74.00;;;;;;5070471;28;19922;-80
2022/11/21 12:18:00;;;;;;;;;;;7.90;74.10;;;;;;5060175;28;19948;-79
2022/11/21 12:20:32;;;;;;;;;;;7.90;74.00;;;;;;5079531;28;20356;-78
2022/11/21 12:22:58;;;;;;;;;;;8.00;74.10;;;;;;5098146;28;19913;-78
2022/11/21 12:25:29;;;;;;;;;;;8.00;74.00;;;;;;5094795;28;19920;-79
2022/11/21 12:27:55;;;;;;;;;;;8.00;74.00;;;;;;5060523;28;19915;-81
2022/11/21 12:30:31;;;;;;;;;;;8.00;74.00;;;;;;5047755;28;19979;-80
2022/11/21 12:33:03;;;;;;;;;;;8.10;74.00;;;;;;5063776;28;19912;-80
2022/11/21 12:35:32;;;;;;;;;;;8.10;74.10;;;;;;5086967;28;19970;-80
2022/11/21 12:37:58;;;;;;;;;;;8.10;74.00;;;;;;5084437;28;19908;-80
2022/11/21 12:40:36;;;;;;;;;;;8.20;74.10;;;;;;5074496;28;20419;-80
2022/11/21 12:43:22;;;;;;;;;;;8.20;74.00;;;;;;5081615;28;19912;-80
2022/11/21 12:46:00;;;;;;;;;;;8.20;74.00;;;;;;5093511;28;20062;-81
2022/11/21 12:54:37;;;;;;;;;;;8.30;74.00;;;;;;5076657;28;19951;-79
2022/11/21 12:57:06;;;;;;;;;;;8.30;74.10;;;;;;5076803;28;19964;-78
2022/11/21 12:59:38;;;;;;;;;;;8.30;74.00;;;;;;5092999;28;20013;-80
2022/11/21 13:02:14;;;;;;;;;;;8.40;74.10;;;;;;5092765;28;19912;-79
2022/11/21 13:04:40;;;;;;;;;;;8.40;74.00;;;;;;5056396;28;19976;-81
2022/11/21 13:07:06;;;;;;;;;;;8.40;74.00;;;;;;5057982;28;20455;-79
2022/11/21 13:09:36;;;;;;;;;;;8.50;74.00;;;;;;5074715;28;20037;-79
2022/11/21 13:12:01;;;;;;;;;;;8.50;74.00;;;;;;5075265;28;19912;-80
2022/11/21 13:14:30;;;;;;;;;;;8.50;74.00;;;;;;5093616;28;19919;-80
2022/11/21 13:17:12;;;;;;;;;;;8.50;74.00;;;;;;5073074;28;19922;-80
2022/11/21 13:19:44;;;;;;;;;;;8.60;74.00;;;;;;5074021;28;19939;-81
2022/11/21 13:22:28;;;;;;;;;;;8.60;74.00;;;;;;5094816;28;19959;-80
2022/11/21 13:24:55;;;;;;;;;;;8.60;73.90;;;;;;5074205;28;19923;-80
2022/11/21 13:27:34;;;;;;;;;;;8.60;73.90;;;;;;5072757;28;19966;-82
2022/11/21 13:30:06;;;;;;;;;;;8.70;74.00;;;;;;5078178;28;19913;-83
2022/11/21 13:32:39;;;;;;;;;;;8.70;73.90;;;;;;5074797;28;19912;-80
2022/11/21 13:35:13;;;;;;;;;;;8.70;73.90;;;;;;5090025;28;19957;-80
2022/11/21 13:37:48;;;;;;;;;;;8.70;73.90;;;;;;5092298;28;19952;-79
2022/11/21 13:40:26;;;;;;;;;;;8.70;73.80;;;;;;5072048;28;19919;-79
2022/11/21 13:43:04;;;;;;;;;;;8.80;73.90;;;;;;5072950;28;19931;-81
2022/11/21 13:45:39;;;;;;;;;;;8.80;73.90;;;;;;5090403;28;20380;-79
2022/11/21 13:48:14;;;;;;;;;;;8.80;73.80;;;;;;5074350;28;20008;-80
2022/11/21 13:50:47;;;;;;;;;;;8.80;73.80;;;;;;5064484;28;19919;-80
2022/11/21 13:53:26;;;;;;;;;;;8.90;73.80;;;;;;5083756;28;19912;-79
2022/11/21 13:55:59;;;;;;;;;;;8.90;73.80;;;;;;5069451;28;20006;-79
2022/11/21 13:58:24;;;;;;;;;;;8.90;73.80;;;;;;5082526;28;19923;-79
2022/11/21 14:00:59;;;;;;;;;;;9.00;73.80;;;;;;5083879;28;20006;-79
2022/11/21 14:03:40;;;;;;;;;;;8.90;73.70;;;;;;5089927;28;20400;-81
2022/11/21 14:06:29;;;;;;;;;;;9.00;73.70;;;;;;5101484;28;20011;-80
2022/11/21 14:09:13;;;;;;;;;;;9.00;73.70;;;;;;5071848;28;19919;-80
2022/11/21 14:11:49;;;;;;;;;;;9.00;73.70;;;;;;5095599;28;19970;-83
2022/11/21 14:14:30;;;;;;;;;;;9.10;73.70;;;;;;5067885;28;20486;-80
2022/11/21 14:17:15;;;;;;;;;;;9.10;73.70;;;;;;5091971;28;20031;-80
2022/11/21 14:19:40;;;;;;;;;;;9.10;74.30;;;;;;5075495;28;19912;-83
2022/11/21 14:22:23;;;;;;;;;;;9.10;73.70;;;;;;5056095;28;19927;-79
2022/11/21 14:24:49;;;;;;;;;;;9.10;73.70;;;;;;5090745;28;20348;-79
2022/11/21 14:27:21;;;;;;;;;;;9.10;73.60;;;;;;5059697;28;19920;-81
2022/11/21 14:29:47;;;;;;;;;;;9.20;73.70;;;;;;5078634;28;19912;-79
2022/11/21 14:32:13;;;;;;;;;;;9.20;73.70;;;;;;5086579;28;19924;-82
2022/11/21 14:34:39;;;;;;;;;;;9.20;73.70;;;;;;5091825;28;19935;-80
2022/11/21 14:37:05;;;;;;;;;;;9.20;73.60;;;;;;5048974;28;19920;-79
2022/11/21 14:39:38;;;;;;;;;;;9.20;73.70;;;;;;5077534;28;19923;-79
2022/11/21 14:42:05;;;;;;;;;;;9.20;73.60;;;;;;5091254;28;19920;-81
2022/11/21 14:44:31;;;;;;;;;;;9.30;73.60;;;;;;5086573;28;20411;-84
2022/11/21 14:47:16;;;;;;;;;;;9.20;73.60;;;;;;5088001;28;19916;-81
2022/11/21 14:49:51;;;;;;;;;;;9.30;73.70;;;;;;5089431;28;19919;-82
2022/11/21 14:52:25;;;;;;;;;;;9.30;73.60;;;;;;5088570;28;19912;-82
2022/11/21 14:55:02;;;;;;;;;;;9.30;73.60;;;;;;5073306;28;19951;-83
2022/11/21 14:57:27;;;;;;;;;;;9.30;73.70;;;;;;5074149;28;19916;-81
2022/11/21 14:59:53;;;;;;;;;;;9.30;73.70;;;;;;5085570;28;20343;-82
2022/11/21 15:02:24;;;;;;;;;;;9.30;73.60;;;;;;5060586;28;19969;-78
2022/11/21 15:04:51;;;;;;;;;;;9.30;73.60;;;;;;5082143;28;20004;-80
2022/11/21 15:07:27;;;;;;;;;;;9.30;73.60;;;;;;5091918;28;19960;-80